sensor_id;sensor_type;location;lat;lon;timestamp;pressure;altitude;pressure_sealevel;temperature;humidity
48630;BME280;34426;52.180;4.462;2023-04-01T00:01:46;99148.19;;;8.48;97.95
48630;BME280;34426;52.180;4.462;2023-04-01T00:04:38;99146.25;;;8.49;97.49
48630;BME280;34426;52.180;4.462;2023-04-01T00:07:09;99149.56;;;8.51;97.78
48630;BME280;34426;52.180;4.462;2023-04-01T00:09:54;99150.97;;;8.48;97.97
48630;BME280;34426;52.180;4.462;2023-04-01T00:12:50;99149.31;;;8.47;97.58
48630;BME280;34426;52.180;4.462;2023-04-01T00:15:26;99157.97;;;8.46;97.96
48630;BME280;34426;52.180;4.462;2023-04-01T00:18:03;99162.44;;;8.47;97.86
48630;BME280;34426;52.180;4.462;2023-04-01T00:20:42;99159.63;;;8.47;98.26
48630;BME280;34426;52.180;4.462;2023-04-01T00:23:30;99160.47;;;8.47;98.01
48630;BME280;34426;52.180;4.462;2023-04-01T00:26:08;99163.78;;;8.49;98.45
48630;BME280;34426;52.180;4.462;2023-04-01T00:28:55;99162.72;;;8.45;97.60
48630;BME280;34426;52.180;4.462;2023-04-01T00:31:26;99169.94;;;8.46;98.02
48630;BME280;34426;52.180;4.462;2023-04-01T00:33:59;99174.69;;;8.46;97.77
48630;BME280;34426;52.180;4.462;2023-04-01T00:36:49;99166.63;;;8.44;97.97
48630;BME280;34426;52.180;4.462;2023-04-01T00:39:25;99173.88;;;8.45;98.06
48630;BME280;34426;52.180;4.462;2023-04-01T00:41:58;99172.19;;;8.44;97.91
48630;BME280;34426;52.180;4.462;2023-04-01T00:44:28;99176.06;;;8.48;98.54
48630;BME280;34426;52.180;4.462;2023-04-01T00:47:03;99185.00;;;8.45;98.02
48630;BME280;34426;52.180;4.462;2023-04-01T00:49:34;99182.81;;;8.42;98.34
48630;BME280;34426;52.180;4.462;2023-04-01T00:52:13;99186.44;;;8.43;97.97
48630;BME280;34426;52.180;4.462;2023-04-01T00:55:01;99187.25;;;8.43;98.08
48630;BME280;34426;52.180;4.462;2023-04-01T01:00:28;99198.41;;;8.43;98.76
48630;BME280;34426;52.180;4.462;2023-04-01T01:02:55;99198.41;;;8.43;98.28
48630;BME280;34426;52.180;4.462;2023-04-01T01:05:29;99198.94;;;8.45;98.62
48630;BME280;34426;52.180;4.462;2023-04-01T01:08:08;99190.56;;;8.45;98.57
48630;BME280;34426;52.180;4.462;2023-04-01T01:10:44;99207.28;;;8.45;98.21
48630;BME280;34426;52.180;4.462;2023-04-01T01:13:19;99200.91;;;8.45;98.41
48630;BME280;34426;52.180;4.462;2023-04-01T01:16:01;99200.91;;;8.45;98.35
48630;BME280;34426;52.180;4.462;2023-04-01T01:18:42;99205.63;;;8.44;97.82
48630;BME280;34426;52.180;4.462;2023-04-01T01:24:43;99222.66;;;8.43;98.13
48630;BME280;34426;52.180;4.462;2023-04-01T01:27:39;99227.09;;;8.44;98.56
48630;BME280;34426;52.180;4.462;2023-04-01T01:30:40;99224.00;;;8.45;98.69
48630;BME280;34426;52.180;4.462;2023-04-01T01:36:32;99233.50;;;8.44;98.37
48630;BME280;34426;52.180;4.462;2023-04-01T01:39:13;99231.25;;;8.46;98.45
48630;BME280;34426;52.180;4.462;2023-04-01T01:41:45;99229.00;;;8.48;98.90
48630;BME280;34426;52.180;4.462;2023-04-01T01:44:24;99231.25;;;8.46;98.44
48630;BME280;34426;52.180;4.462;2023-04-01T01:47:16;99239.91;;;8.45;98.32
48630;BME280;34426;52.180;4.462;2023-04-01T01:50:20;99241.84;;;8.44;98.93
48630;BME280;34426;52.180;4.462;2023-04-01T01:53:04;99250.22;;;8.44;98.31
48630;BME280;34426;52.180;4.462;2023-04-01T01:55:33;99246.00;;;8.47;98.73
48630;BME280;34426;52.180;4.462;2023-04-01T01:58:06;99249.63;;;8.47;98.77
48630;BME280;34426;52.180;4.462;2023-04-01T02:00:36;99251.00;;;8.50;98.46
48630;BME280;34426;52.180;4.462;2023-04-01T02:03:10;99254.63;;;8.50;98.69
48630;BME280;34426;52.180;4.462;2023-04-01T02:08:37;99263.25;;;8.49;98.83
48630;BME280;34426;52.180;4.462;2023-04-01T02:11:08;99272.16;;;8.51;98.20
48630;BME280;34426;52.180;4.462;2023-04-01T02:14:15;99276.06;;;8.50;98.52
48630;BME280;34426;52.180;4.462;2023-04-01T02:16:52;99276.06;;;8.50;98.20
48630;BME280;34426;52.180;4.462;2023-04-01T02:19:28;99288.88;;;8.51;98.63
48630;BME280;34426;52.180;4.462;2023-04-01T02:22:03;99285.50;;;8.54;98.69
48630;BME280;34426;52.180;4.462;2023-04-01T02:24:42;99296.91;;;8.57;99.04
48630;BME280;34426;52.180;4.462;2023-04-01T02:27:24;99295.25;;;8.56;98.89
48630;BME280;34426;52.180;4.462;2023-04-01T02:33:06;99298.53;;;8.63;98.67
48630;BME280;34426;52.180;4.462;2023-04-01T02:36:35;99309.06;;;8.66;98.45
48630;BME280;34426;52.180;4.462;2023-04-01T02:38:52;99308.47;;;8.70;99.18
48630;BME280;34426;52.180;4.462;2023-04-01T02:41:46;99310.72;;;8.67;99.16
48630;BME280;34426;52.180;4.462;2023-04-01T02:44:38;99316.28;;;8.67;98.60
48630;BME280;34426;52.180;4.462;2023-04-01T02:47:17;99321.28;;;8.71;98.62
48630;BME280;34426;52.180;4.462;2023-04-01T02:53:05;99326.81;;;8.76;98.93
48630;BME280;34426;52.180;4.462;2023-04-01T02:59:09;99335.41;;;8.79;98.52
48630;BME280;34426;52.180;4.462;2023-04-01T03:01:53;99352.97;;;8.80;98.96
48630;BME280;34426;52.180;4.462;2023-04-01T03:07:18;99361.94;;;8.77;98.59
48630;BME280;34426;52.180;4.462;2023-04-01T03:10:05;99361.63;;;8.78;98.85
48630;BME280;34426;52.180;4.462;2023-04-01T03:22:45;99378.94;;;8.75;98.33
48630;BME280;34426;52.180;4.462;2023-04-01T03:27:55;99389.59;;;8.68;98.31
48630;BME280;34426;52.180;4.462;2023-04-01T03:31:20;99392.34;;;8.73;98.34
48630;BME280;34426;52.180;4.462;2023-04-01T03:33:21;99400.41;;;8.75;98.83
48630;BME280;34426;52.180;4.462;2023-04-01T03:39:05;99413.81;;;8.73;98.70
48630;BME280;34426;52.180;4.462;2023-04-01T03:41:46;99423.28;;;8.72;98.96
48630;BME280;34426;52.180;4.462;2023-04-01T03:44:54;99423.88;;;8.68;98.61
48630;BME280;34426;52.180;4.462;2023-04-01T03:47:30;99425.53;;;8.70;99.05
48630;BME280;34426;52.180;4.462;2023-04-01T03:50:00;99435.03;;;8.68;98.95
48630;BME280;34426;52.180;4.462;2023-04-01T03:55:39;99437.63;;;8.60;98.72
48630;BME280;34426;52.180;4.462;2023-04-01T04:01:43;99465.47;;;8.65;98.24
48630;BME280;34426;52.180;4.462;2023-04-01T04:07:19;99459.91;;;8.60;98.38
48630;BME280;34426;52.180;4.462;2023-04-01T04:10:04;99476.38;;;8.56;98.73
48630;BME280;34426;52.180;4.462;2023-04-01T04:12:36;99466.66;;;8.54;98.01
48630;BME280;34426;52.180;4.462;2023-04-01T04:15:20;99481.97;;;8.56;98.25
48630;BME280;34426;52.180;4.462;2023-04-01T04:18:00;99488.66;;;8.55;98.80
48630;BME280;34426;52.180;4.462;2023-04-01T04:20:27;99499.50;;;8.57;98.57
48630;BME280;34426;52.180;4.462;2023-04-01T04:25:56;99497.56;;;8.57;98.18
48630;BME280;34426;52.180;4.462;2023-04-01T04:31:30;99511.22;;;8.54;98.38
48630;BME280;34426;52.180;4.462;2023-04-01T04:36:47;99515.13;;;8.53;98.92
48630;BME280;34426;52.180;4.462;2023-04-01T04:39:16;99521.00;;;8.51;98.41
48630;BME280;34426;52.180;4.462;2023-04-01T04:42:27;99529.94;;;8.48;98.41
48630;BME280;34426;52.180;4.462;2023-04-01T04:45:13;99530.47;;;8.50;98.78
48630;BME280;34426;52.180;4.462;2023-04-01T04:47:58;99539.66;;;8.51;98.20
48630;BME280;34426;52.180;4.462;2023-04-01T04:50:45;99543.88;;;8.48;97.87
48630;BME280;34426;52.180;4.462;2023-04-01T04:53:33;99544.97;;;8.47;98.72
48630;BME280;34426;52.180;4.462;2023-04-01T04:59:28;99550.28;;;8.44;98.68
48630;BME280;34426;52.180;4.462;2023-04-01T05:05:09;99562.28;;;8.44;98.61
48630;BME280;34426;52.180;4.462;2023-04-01T05:10:24;99574.53;;;8.43;98.62
48630;BME280;34426;52.180;4.462;2023-04-01T05:16:10;99590.13;;;8.44;98.11
48630;BME280;34426;52.180;4.462;2023-04-01T05:18:38;99593.75;;;8.45;98.20
48630;BME280;34426;52.180;4.462;2023-04-01T05:21:24;99591.53;;;8.42;98.73
48630;BME280;34426;52.180;4.462;2023-04-01T05:23:51;99593.22;;;8.43;98.52
48630;BME280;34426;52.180;4.462;2023-04-01T05:26:37;99605.19;;;8.43;98.56
48630;BME280;34426;52.180;4.462;2023-04-01T05:29:26;99601.00;;;8.41;97.96
48630;BME280;34426;52.180;4.462;2023-04-01T05:32:14;99606.88;;;8.39;98.59
48630;BME280;34426;52.180;4.462;2023-04-01T05:37:48;99613.56;;;8.38;98.69
48630;BME280;34426;52.180;4.462;2023-04-01T05:40:25;99615.78;;;8.36;98.80
48630;BME280;34426;52.180;4.462;2023-04-01T05:43:04;99620.81;;;8.39;98.38
48630;BME280;34426;52.180;4.462;2023-04-01T05:45:31;99638.09;;;8.36;97.93
48630;BME280;34426;52.180;4.462;2023-04-01T05:48:24;99640.31;;;8.34;98.54
48630;BME280;34426;52.180;4.462;2023-04-01T05:50:57;99643.38;;;8.27;98.37
48630;BME280;34426;52.180;4.462;2023-04-01T05:53:40;99651.72;;;8.27;98.36
48630;BME280;34426;52.180;4.462;2023-04-01T05:56:41;99648.13;;;8.22;98.84
48630;BME280;34426;52.180;4.462;2023-04-01T05:59:43;99653.41;;;8.23;98.59
48630;BME280;34426;52.180;4.462;2023-04-01T06:02:24;99651.44;;;8.24;98.51
48630;BME280;34426;52.180;4.462;2023-04-01T06:08:24;99662.88;;;8.27;98.36
48630;BME280;34426;52.180;4.462;2023-04-01T06:11:16;99666.19;;;8.29;98.34
48630;BME280;34426;52.180;4.462;2023-04-01T06:14:16;99671.50;;;8.26;98.32
48630;BME280;34426;52.180;4.462;2023-04-01T06:17:04;99671.50;;;8.26;98.05
48630;BME280;34426;52.180;4.462;2023-04-01T06:20:07;99672.63;;;8.25;98.09
48630;BME280;34426;52.180;4.462;2023-04-01T06:23:23;99686.53;;;8.30;98.19
48630;BME280;34426;52.180;4.462;2023-04-01T06:26:19;99686.25;;;8.31;98.87
48630;BME280;34426;52.180;4.462;2023-04-01T06:29:21;99698.22;;;8.32;98.15
48630;BME280;34426;52.180;4.462;2023-04-01T06:32:23;99710.25;;;8.32;97.93
48630;BME280;34426;52.180;4.462;2023-04-01T06:41:28;99721.09;;;8.39;98.25
48630;BME280;34426;52.180;4.462;2023-04-01T06:47:07;99722.19;;;8.48;98.68
48630;BME280;34426;52.180;4.462;2023-04-01T06:50:05;99731.13;;;8.45;98.14
48630;BME280;34426;52.180;4.462;2023-04-01T06:52:58;99729.44;;;8.44;98.50
48630;BME280;34426;52.180;4.462;2023-04-01T06:58:29;99739.50;;;8.40;98.76
48630;BME280;34426;52.180;4.462;2023-04-01T07:01:16;99749.53;;;8.41;98.22
48630;BME280;34426;52.180;4.462;2023-04-01T07:03:55;99750.91;;;8.44;98.22
48630;BME280;34426;52.180;4.462;2023-04-01T07:06:38;99746.16;;;8.49;98.29
48630;BME280;34426;52.180;4.462;2023-04-01T07:12:18;99750.63;;;8.50;98.54
48630;BME280;34426;52.180;4.462;2023-04-01T07:18:09;99765.97;;;8.48;98.07
48630;BME280;34426;52.180;4.462;2023-04-01T07:20:46;99775.72;;;8.50;98.20
48630;BME280;34426;52.180;4.462;2023-04-01T07:24:17;99781.84;;;8.42;97.99
48630;BME280;34426;52.180;4.462;2023-04-01T07:26:43;99784.91;;;8.41;97.76
48630;BME280;34426;52.180;4.462;2023-04-01T07:32:48;99789.63;;;8.50;97.76
48630;BME280;34426;52.180;4.462;2023-04-01T07:35:34;99793.25;;;8.46;97.97
48630;BME280;34426;52.180;4.462;2023-04-01T07:38:25;99795.50;;;8.54;97.76
48630;BME280;34426;52.180;4.462;2023-04-01T07:41:12;99804.69;;;8.54;98.13
48630;BME280;34426;52.180;4.462;2023-04-01T07:44:04;99804.13;;;8.52;97.52
48630;BME280;34426;52.180;4.462;2023-04-01T07:47:03;99810.81;;;8.56;97.93
48630;BME280;34426;52.180;4.462;2023-04-01T07:49:49;99803.56;;;8.55;97.24
48630;BME280;34426;52.180;4.462;2023-04-01T07:52:30;99821.13;;;8.56;97.69
48630;BME280;34426;52.180;4.462;2023-04-01T07:55:08;99830.03;;;8.58;96.81
48630;BME280;34426;52.180;4.462;2023-04-01T07:57:43;99828.09;;;8.58;97.37
48630;BME280;34426;52.180;4.462;2023-04-01T08:00:43;99822.53;;;8.53;97.59
48630;BME280;34426;52.180;4.462;2023-04-01T08:09:51;99839.25;;;8.53;97.16
48630;BME280;34426;52.180;4.462;2023-04-01T08:12:52;99845.38;;;8.60;97.99
48630;BME280;34426;52.180;4.462;2023-04-01T08:16:02;99842.59;;;8.65;97.71
48630;BME280;34426;52.180;4.462;2023-04-01T08:18:56;99850.91;;;8.71;97.42
48630;BME280;34426;52.180;4.462;2023-04-01T08:30:28;99873.50;;;8.74;97.19
48630;BME280;34426;52.180;4.462;2023-04-01T08:36:36;99877.69;;;8.77;96.92
48630;BME280;34426;52.180;4.462;2023-04-01T08:39:07;99879.34;;;8.78;97.11
48630;BME280;34426;52.180;4.462;2023-04-01T08:42:21;99879.91;;;8.75;96.56
48630;BME280;34426;52.180;4.462;2023-04-01T08:51:43;99891.06;;;8.80;97.75
48630;BME280;34426;52.180;4.462;2023-04-01T08:54:53;99904.16;;;8.79;96.61
48630;BME280;34426;52.180;4.462;2023-04-01T08:57:42;99901.09;;;8.91;97.36
48630;BME280;34426;52.180;4.462;2023-04-01T09:00:38;99903.88;;;8.86;96.17
48630;BME280;34426;52.180;4.462;2023-04-01T09:10:04;99912.53;;;9.05;96.90
48630;BME280;34426;52.180;4.462;2023-04-01T09:12:59;99925.06;;;9.07;96.80
48630;BME280;34426;52.180;4.462;2023-04-01T09:21:46;99930.66;;;9.02;96.49
48630;BME280;34426;52.180;4.462;2023-04-01T09:27:27;99934.56;;;9.06;96.52
48630;BME280;34426;52.180;4.462;2023-04-01T09:36:04;99942.38;;;9.09;95.77
48630;BME280;34426;52.180;4.462;2023-04-01T09:45:42;99951.53;;;9.15;96.35
48630;BME280;34426;52.180;4.462;2023-04-01T09:51:48;99957.38;;;9.18;96.33
48630;BME280;34426;52.180;4.462;2023-04-01T09:54:40;99964.91;;;9.18;96.61
48630;BME280;34426;52.180;4.462;2023-04-01T09:57:38;99959.06;;;9.19;95.74
48630;BME280;34426;52.180;4.462;2023-04-01T10:00:50;99961.56;;;9.26;95.92
48630;BME280;34426;52.180;4.462;2023-04-01T10:13:28;99988.34;;;9.22;95.63
48630;BME280;34426;52.180;4.462;2023-04-01T10:22:56;100002.59;;;9.25;95.97
48630;BME280;34426;52.180;4.462;2023-04-01T10:32:16;100004.81;;;9.23;95.30
48630;BME280;34426;52.180;4.462;2023-04-01T10:38:51;100005.09;;;9.27;95.14
48630;BME280;34426;52.180;4.462;2023-04-01T10:44:56;100014.84;;;9.40;95.34
48630;BME280;34426;52.180;4.462;2023-04-01T10:50:58;100013.69;;;9.56;95.33
48630;BME280;34426;52.180;4.462;2023-04-01T10:53:52;100019.25;;;9.66;94.44
48630;BME280;34426;52.180;4.462;2023-04-01T10:56:59;100022.06;;;9.66;95.10
48630;BME280;34426;52.180;4.462;2023-04-01T11:03:15;100019.78;;;9.88;94.19
48630;BME280;34426;52.180;4.462;2023-04-01T11:19:08;100042.41;;;9.82;93.84
48630;BME280;34426;52.180;4.462;2023-04-01T11:37:59;100060.00;;;9.87;94.16
48630;BME280;34426;52.180;4.462;2023-04-01T11:40:52;100068.34;;;9.97;94.67
48630;BME280;34426;52.180;4.462;2023-04-01T11:52:51;100074.44;;;10.20;92.89
48630;BME280;34426;52.180;4.462;2023-04-01T11:55:47;100087.28;;;10.31;92.30
48630;BME280;34426;52.180;4.462;2023-04-01T11:58:58;100082.78;;;10.35;93.25
48630;BME280;34426;52.180;4.462;2023-04-01T12:02:05;100091.66;;;10.47;92.61
48630;BME280;34426;52.180;4.462;2023-04-01T12:07:59;100102.81;;;10.57;92.68
48630;BME280;34426;52.180;4.462;2023-04-01T12:10:50;100106.75;;;10.46;92.06
48630;BME280;34426;52.180;4.462;2023-04-01T12:13:39;100108.97;;;10.54;92.62
48630;BME280;34426;52.180;4.462;2023-04-01T12:16:29;100104.22;;;10.50;92.31
48630;BME280;34426;52.180;4.462;2023-04-01T12:19:12;100114.53;;;10.64;92.71
48630;BME280;34426;52.180;4.462;2023-04-01T12:22:04;100112.84;;;10.63;91.45
48630;BME280;34426;52.180;4.462;2023-04-01T12:25:03;100118.44;;;10.63;91.54
48630;BME280;34426;52.180;4.462;2023-04-01T12:27:46;100119.00;;;10.65;91.66
48630;BME280;34426;52.180;4.462;2023-04-01T12:36:59;100138.53;;;10.76;90.89
48630;BME280;34426;52.180;4.462;2023-04-01T12:39:59;100133.81;;;10.66;91.34
48630;BME280;34426;52.180;4.462;2023-04-01T12:42:57;100139.69;;;10.70;90.88
48630;BME280;34426;52.180;4.462;2023-04-01T12:45:35;100148.34;;;10.73;91.02
48630;BME280;34426;52.180;4.462;2023-04-01T12:57:32;100162.41;;;11.07;88.55
48630;BME280;34426;52.180;4.462;2023-04-01T13:03:42;100159.66;;;11.02;88.92
48630;BME280;34426;52.180;4.462;2023-04-01T13:06:39;100162.94;;;11.14;89.27
48630;BME280;34426;52.180;4.462;2023-04-01T13:09:25;100176.97;;;11.09;88.42
48630;BME280;34426;52.180;4.462;2023-04-01T13:15:20;100170.44;;;10.75;88.20
48630;BME280;34426;52.180;4.462;2023-04-01T13:18:05;100189.66;;;10.86;88.39
48630;BME280;34426;52.180;4.462;2023-04-01T13:20:48;100185.47;;;10.84;88.50
48630;BME280;34426;52.180;4.462;2023-04-01T13:26:43;100192.09;;;11.52;87.16
48630;BME280;34426;52.180;4.462;2023-04-01T13:29:27;100197.44;;;11.49;86.11
48630;BME280;34426;52.180;4.462;2023-04-01T13:32:13;100207.41;;;11.21;85.93
48630;BME280;34426;52.180;4.462;2023-04-01T13:35:01;100199.09;;;11.06;87.85
48630;BME280;34426;52.180;4.462;2023-04-01T13:37:57;100189.13;;;11.33;87.09
48630;BME280;34426;52.180;4.462;2023-04-01T13:40:47;100208.97;;;11.76;83.69
48630;BME280;34426;52.180;4.462;2023-04-01T13:43:22;100208.25;;;12.05;83.73
48630;BME280;34426;52.180;4.462;2023-04-01T13:49:10;100211.28;;;12.08;83.56
48630;BME280;34426;52.180;4.462;2023-04-01T13:58:03;100222.91;;;11.91;84.26
48630;BME280;34426;52.180;4.462;2023-04-01T14:03:54;100229.59;;;12.29;81.96
48630;BME280;34426;52.180;4.462;2023-04-01T14:06:47;100235.78;;;12.26;82.29
48630;BME280;34426;52.180;4.462;2023-04-01T14:09:36;100237.06;;;12.10;82.82
48630;BME280;34426;52.180;4.462;2023-04-01T14:12:24;100244.28;;;11.82;83.62
48630;BME280;34426;52.180;4.462;2023-04-01T14:15:19;100245.44;;;11.71;84.20
48630;BME280;34426;52.180;4.462;2023-04-01T14:20:52;100256.34;;;11.28;86.14
48630;BME280;34426;52.180;4.462;2023-04-01T14:23:52;100268.25;;;10.95;87.29
48630;BME280;34426;52.180;4.462;2023-04-01T14:29:55;100277.31;;;10.51;89.38
48630;BME280;34426;52.180;4.462;2023-04-01T14:32:45;100279.25;;;10.56;90.03
48630;BME280;34426;52.180;4.462;2023-04-01T14:35:41;100278.41;;;10.55;90.85
48630;BME280;34426;52.180;4.462;2023-04-01T14:38:37;100280.09;;;10.46;91.85
48630;BME280;34426;52.180;4.462;2023-04-01T14:41:30;100281.78;;;10.57;90.60
48630;BME280;34426;52.180;4.462;2023-04-01T14:50:11;100299.13;;;10.44;91.84
48630;BME280;34426;52.180;4.462;2023-04-01T14:52:57;100298.56;;;10.57;91.57
48630;BME280;34426;52.180;4.462;2023-04-01T14:55:46;100304.69;;;10.64;90.99
48630;BME280;34426;52.180;4.462;2023-04-01T15:01:24;100315.84;;;10.85;91.55
48630;BME280;34426;52.180;4.462;2023-04-01T15:04:13;100322.25;;;10.85;90.63
48630;BME280;34426;52.180;4.462;2023-04-01T15:07:03;100322.31;;;10.80;90.94
48630;BME280;34426;52.180;4.462;2023-04-01T15:09:40;100333.72;;;10.94;90.79
48630;BME280;34426;52.180;4.462;2023-04-01T15:12:30;100333.16;;;11.02;90.94
48630;BME280;34426;52.180;4.462;2023-04-01T15:15:21;100331.75;;;11.05;90.01
48630;BME280;34426;52.180;4.462;2023-04-01T15:18:17;100344.66;;;10.85;90.83
48630;BME280;34426;52.180;4.462;2023-04-01T15:21:13;100355.59;;;10.72;91.08
48630;BME280;34426;52.180;4.462;2023-04-01T15:26:58;100361.47;;;10.45;91.43
48630;BME280;34426;52.180;4.462;2023-04-01T15:29:41;100367.09;;;10.35;91.75
48630;BME280;34426;52.180;4.462;2023-04-01T15:32:39;100374.06;;;10.22;92.11
48630;BME280;34426;52.180;4.462;2023-04-01T15:35:21;100378.81;;;10.31;92.46
48630;BME280;34426;52.180;4.462;2023-04-01T15:38:02;100383.31;;;10.38;92.90
48630;BME280;34426;52.180;4.462;2023-04-01T15:40:56;100386.09;;;10.53;92.56
48630;BME280;34426;52.180;4.462;2023-04-01T15:43:40;100401.47;;;10.50;91.02
48630;BME280;34426;52.180;4.462;2023-04-01T15:46:43;100400.91;;;10.53;91.93
48630;BME280;34426;52.180;4.462;2023-04-01T15:49:46;100407.63;;;10.52;91.44
48630;BME280;34426;52.180;4.462;2023-04-01T15:52:37;100409.84;;;10.50;92.38
48630;BME280;34426;52.180;4.462;2023-04-01T15:55:22;100411.53;;;10.51;92.13
48630;BME280;34426;52.180;4.462;2023-04-01T15:58:16;100414.63;;;10.60;92.96
48630;BME280;34426;52.180;4.462;2023-04-01T16:01:07;100421.06;;;10.65;92.99
48630;BME280;34426;52.180;4.462;2023-04-01T16:03:48;100432.25;;;10.71;92.32
48630;BME280;34426;52.180;4.462;2023-04-01T16:09:43;100435.03;;;10.60;91.98
48630;BME280;34426;52.180;4.462;2023-04-01T16:12:32;100446.22;;;10.71;92.44
48630;BME280;34426;52.180;4.462;2023-04-01T16:15:17;100446.78;;;10.68;91.29
48630;BME280;34426;52.180;4.462;2023-04-01T16:18:37;100453.47;;;10.56;91.00
48630;BME280;34426;52.180;4.462;2023-04-01T16:21:21;100456.81;;;10.48;90.93
48630;BME280;34426;52.180;4.462;2023-04-01T16:23:51;100462.94;;;10.40;90.80
48630;BME280;34426;52.180;4.462;2023-04-01T16:26:29;100464.34;;;10.43;90.62
48630;BME280;34426;52.180;4.462;2023-04-01T16:29:11;100473.59;;;10.38;90.58
48630;BME280;34426;52.180;4.462;2023-04-01T16:31:59;100488.09;;;10.25;90.61
48630;BME280;34426;52.180;4.462;2023-04-01T16:34:41;100485.31;;;10.25;91.23
48630;BME280;34426;52.180;4.462;2023-04-01T16:37:20;100495.94;;;10.33;90.53
48630;BME280;34426;52.180;4.462;2023-04-01T16:40:10;100499.88;;;10.32;90.73
48630;BME280;34426;52.180;4.462;2023-04-01T16:43:05;100509.94;;;10.38;90.74
48630;BME280;34426;52.180;4.462;2023-04-01T16:45:38;100516.66;;;10.37;90.30
48630;BME280;34426;52.180;4.462;2023-04-01T16:48:56;100514.97;;;10.41;90.38
48630;BME280;34426;52.180;4.462;2023-04-01T16:52:57;100526.97;;;10.26;90.36
48630;BME280;34426;52.180;4.462;2023-04-01T16:54:36;100537.03;;;10.27;91.15
48630;BME280;34426;52.180;4.462;2023-04-01T16:57:27;100538.91;;;10.17;89.81
48630;BME280;34426;52.180;4.462;2023-04-01T17:03:29;100561.81;;;10.14;89.68
48630;BME280;34426;52.180;4.462;2023-04-01T17:09:32;100576.00;;;10.02;90.34
48630;BME280;34426;52.180;4.462;2023-04-01T17:12:31;100576.25;;;10.00;90.20
48630;BME280;34426;52.180;4.462;2023-04-01T17:15:20;100582.69;;;9.96;90.25
48630;BME280;34426;52.180;4.462;2023-04-01T17:18:28;100594.97;;;9.95;90.40
48630;BME280;34426;52.180;4.462;2023-04-01T17:21:22;100595.19;;;9.83;89.75
48630;BME280;34426;52.180;4.462;2023-04-01T17:24:14;100599.06;;;9.82;90.79
48630;BME280;34426;52.180;4.462;2023-04-01T17:27:00;100616.16;;;9.86;91.22
48630;BME280;34426;52.180;4.462;2023-04-01T17:36:20;100626.16;;;9.82;90.60
48630;BME280;34426;52.180;4.462;2023-04-01T17:41:58;100633.13;;;9.79;90.09
48630;BME280;34426;52.180;4.462;2023-04-01T17:44:58;100647.69;;;9.81;89.50
48630;BME280;34426;52.180;4.462;2023-04-01T17:47:46;100653.78;;;9.78;89.51
48630;BME280;34426;52.180;4.462;2023-04-01T17:50:34;100664.88;;;9.68;90.00
48630;BME280;34426;52.180;4.462;2023-04-01T17:53:25;100680.53;;;9.69;89.05
48630;BME280;34426;52.180;4.462;2023-04-01T17:56:21;100672.47;;;9.73;89.97
48630;BME280;34426;52.180;4.462;2023-04-01T17:59:09;100682.97;;;9.60;90.17
48630;BME280;34426;52.180;4.462;2023-04-01T18:02:05;100694.41;;;9.59;89.86
48630;BME280;34426;52.180;4.462;2023-04-01T18:05:08;100699.97;;;9.59;89.14
48630;BME280;34426;52.180;4.462;2023-04-01T18:08:12;100706.09;;;9.56;89.77
48630;BME280;34426;52.180;4.462;2023-04-01T18:11:12;100716.72;;;9.59;89.68
48630;BME280;34426;52.180;4.462;2023-04-01T18:17:24;100722.78;;;9.46;89.53
48630;BME280;34426;52.180;4.462;2023-04-01T18:20:27;100737.53;;;9.41;88.39
48630;BME280;34426;52.180;4.462;2023-04-01T18:23:00;100736.63;;;9.36;89.20
48630;BME280;34426;52.180;4.462;2023-04-01T18:28:36;100755.56;;;9.33;89.94
48630;BME280;34426;52.180;4.462;2023-04-01T18:31:23;100760.56;;;9.31;89.86
48630;BME280;34426;52.180;4.462;2023-04-01T18:34:15;100764.72;;;9.29;89.28
48630;BME280;34426;52.180;4.462;2023-04-01T18:36:48;100772.84;;;9.30;89.31
48630;BME280;34426;52.180;4.462;2023-04-01T18:39:35;100780.56;;;9.23;89.02
48630;BME280;34426;52.180;4.462;2023-04-01T18:42:15;100784.28;;;9.29;89.06
48630;BME280;34426;52.180;4.462;2023-04-01T18:45:21;100792.25;;;9.20;88.73
48630;BME280;34426;52.180;4.462;2023-04-01T18:47:59;100808.09;;;9.15;89.12
48630;BME280;34426;52.180;4.462;2023-04-01T18:50:38;100816.47;;;9.15;89.47
48630;BME280;34426;52.180;4.462;2023-04-01T18:53:20;100819.47;;;9.08;89.03
48630;BME280;34426;52.180;4.462;2023-04-01T18:56:05;100828.41;;;9.10;89.01
48630;BME280;34426;52.180;4.462;2023-04-01T18:58:33;100833.44;;;9.08;88.89
48630;BME280;34426;52.180;4.462;2023-04-01T19:01:13;100837.31;;;9.07;89.38
48630;BME280;34426;52.180;4.462;2023-04-01T19:06:43;100845.63;;;9.02;88.37
48630;BME280;34426;52.180;4.462;2023-04-01T19:09:24;100852.22;;;8.96;88.06
48630;BME280;34426;52.180;4.462;2023-04-01T19:14:56;100868.28;;;8.89;88.46
48630;BME280;34426;52.180;4.462;2023-04-01T19:17:45;100879.97;;;8.86;88.84
48630;BME280;34426;52.180;4.462;2023-04-01T19:20:30;100887.38;;;8.97;88.60
48630;BME280;34426;52.180;4.462;2023-04-01T19:23:31;100888.41;;;8.74;88.91
48630;BME280;34426;52.180;4.462;2023-04-01T19:26:09;100899.22;;;8.87;88.28
48630;BME280;34426;52.180;4.462;2023-04-01T19:28:45;100907.25;;;8.84;87.92
48630;BME280;34426;52.180;4.462;2023-04-01T19:31:37;100909.47;;;8.82;88.06
48630;BME280;34426;52.180;4.462;2023-04-01T19:34:42;100917.50;;;8.78;88.44
48630;BME280;34426;52.180;4.462;2023-04-01T19:37:32;100920.63;;;8.82;89.00
48630;BME280;34426;52.180;4.462;2023-04-01T19:40:16;100930.59;;;8.78;88.92
48630;BME280;34426;52.180;4.462;2023-04-01T19:42:59;100931.78;;;8.82;88.68
48630;BME280;34426;52.180;4.462;2023-04-01T19:45:41;100936.09;;;8.89;88.40
48630;BME280;34426;52.180;4.462;2023-04-01T19:51:21;100946.81;;;8.81;88.03
48630;BME280;34426;52.180;4.462;2023-04-01T19:54:02;100954.00;;;8.77;87.22
48630;BME280;34426;52.180;4.462;2023-04-01T19:56:41;100955.44;;;8.79;87.34
48630;BME280;34426;52.180;4.462;2023-04-01T19:59:27;100964.91;;;8.78;88.52
48630;BME280;34426;52.180;4.462;2023-04-01T20:02:03;100974.63;;;8.76;87.46
48630;BME280;34426;52.180;4.462;2023-04-01T20:04:45;100977.81;;;8.67;88.00
48630;BME280;34426;52.180;4.462;2023-04-01T20:07:37;100976.56;;;8.58;87.04